Terminal Aerodrome Forecast
Issued by NWS

Home | Current Version | Previous Version | Text Only | Print | Product List | Glossary On
Versions: 1 2 3 4 5 6 7 8 9 10 11 12 13 14 15 16 17
000
FTUS44 KLZK 211239 AAA
TAFHRO
TAF AMD
KHRO 211239Z 2113/2212 VRB03KT P6SM VCSH SCT025
      TEMPO 2113/2114 5SM BR BKN015
     FM211400 17005KT P6SM OVC100
     FM220600 00000KT 4SM BR SCT010=

USA.gov is the U.S. government's official web portal to all federal, state and local government web resources and services.